sensor_id;sensor_type;location;lat;lon;timestamp;pressure;altitude;pressure_sealevel;temperature;humidity
43181;BME280;28798;54.950;26.362;2022-11-04T00:04:10;997.7;;;5.8;100
43181;BME280;28798;54.950;26.362;2022-11-04T00:08:56;997.7;;;5.8;100
43181;BME280;28798;54.950;26.362;2022-11-04T00:14:04;997.6;;;5.7;100
43181;BME280;28798;54.950;26.362;2022-11-04T00:19:19;997.6;;;5.8;100
43181;BME280;28798;54.950;26.362;2022-11-04T00:23:55;997.6;;;5.8;100
43181;BME280;28798;54.950;26.362;2022-11-04T00:29:31;997.6;;;5.7;100
43181;BME280;28798;54.950;26.362;2022-11-04T00:33:56;997.6;;;5.8;100
43181;BME280;28798;54.950;26.362;2022-11-04T00:39:11;997.5;;;5.7;100
43181;BME280;28798;54.950;26.362;2022-11-04T00:44:15;997.5;;;5.7;100
43181;BME280;28798;54.950;26.362;2022-11-04T00:49:03;997.5;;;5.7;100
43181;BME280;28798;54.950;26.362;2022-11-04T00:54:31;997.5;;;5.7;100
43181;BME280;28798;54.950;26.362;2022-11-04T00:59:03;997.5;;;5.7;100
43181;BME280;28798;54.950;26.362;2022-11-04T01:04:07;997.5;;;5.7;100
43181;BME280;28798;54.950;26.362;2022-11-04T01:09:04;997.5;;;5.7;100
43181;BME280;28798;54.950;26.362;2022-11-04T01:14:15;997.4;;;5.8;100
43181;BME280;28798;54.950;26.362;2022-11-04T01:19:10;997.4;;;5.8;100
43181;BME280;28798;54.950;26.362;2022-11-04T01:23:49;997.3;;;5.7;100
43181;BME280;28798;54.950;26.362;2022-11-04T01:28:59;997.3;;;5.6;100
43181;BME280;28798;54.950;26.362;2022-11-04T01:34:23;997.3;;;5.6;100
43181;BME280;28798;54.950;26.362;2022-11-04T01:44:47;997.2;;;5.6;100
43181;BME280;28798;54.950;26.362;2022-11-04T01:48:49;997.2;;;5.7;100
43181;BME280;28798;54.950;26.362;2022-11-04T01:54:27;997.2;;;5.7;100
43181;BME280;28798;54.950;26.362;2022-11-04T01:59:38;997.2;;;5.7;100
43181;BME280;28798;54.950;26.362;2022-11-04T02:04:23;997.1;;;5.6;100
43181;BME280;28798;54.950;26.362;2022-11-04T02:09:36;997.1;;;5.6;100
43181;BME280;28798;54.950;26.362;2022-11-04T02:14:03;997.1;;;5.6;100
43181;BME280;28798;54.950;26.362;2022-11-04T02:19:40;997.1;;;5.6;100
43181;BME280;28798;54.950;26.362;2022-11-04T02:24:11;997.1;;;5.6;100
43181;BME280;28798;54.950;26.362;2022-11-04T02:29:41;997;;;5.5;100
43181;BME280;28798;54.950;26.362;2022-11-04T02:34:05;997;;;5.5;100
43181;BME280;28798;54.950;26.362;2022-11-04T02:44:01;997;;;5.5;100
43181;BME280;28798;54.950;26.362;2022-11-04T02:49:38;997;;;5.5;100
43181;BME280;28798;54.950;26.362;2022-11-04T02:54:07;997;;;5.5;100
43181;BME280;28798;54.950;26.362;2022-11-04T02:59:38;997;;;5.5;100
43181;BME280;28798;54.950;26.362;2022-11-04T03:04:01;997;;;5.5;100
43181;BME280;28798;54.950;26.362;2022-11-04T03:14:12;997;;;5.5;100
43181;BME280;28798;54.950;26.362;2022-11-04T03:19:22;997;;;5.5;100
43181;BME280;28798;54.950;26.362;2022-11-04T03:24:25;997;;;5.5;100
43181;BME280;28798;54.950;26.362;2022-11-04T03:28:50;997;;;5.5;100
43181;BME280;28798;54.950;26.362;2022-11-04T03:34:35;996.9;;;5.5;100
43181;BME280;28798;54.950;26.362;2022-11-04T03:39:15;996.9;;;5.5;100
43181;BME280;28798;54.950;26.362;2022-11-04T03:44:23;997;;;5.5;100
43181;BME280;28798;54.950;26.362;2022-11-04T03:49:13;997;;;5.5;100
43181;BME280;28798;54.950;26.362;2022-11-04T03:54:35;997;;;5.5;100
43181;BME280;28798;54.950;26.362;2022-11-04T03:59:16;997;;;5.5;100
43181;BME280;28798;54.950;26.362;2022-11-04T04:04:36;997;;;5.5;100
43181;BME280;28798;54.950;26.362;2022-11-04T04:14:38;997;;;5.4;100
43181;BME280;28798;54.950;26.362;2022-11-04T04:18:51;997;;;5.4;100
43181;BME280;28798;54.950;26.362;2022-11-04T04:24:38;996.9;;;5.4;100
43181;BME280;28798;54.950;26.362;2022-11-04T04:28:59;996.9;;;5.4;100
43181;BME280;28798;54.950;26.362;2022-11-04T04:34:16;996.9;;;5.4;100
43181;BME280;28798;54.950;26.362;2022-11-04T04:39:30;996.9;;;5.4;100
43181;BME280;28798;54.950;26.362;2022-11-04T04:44:14;996.9;;;5.4;100
43181;BME280;28798;54.950;26.362;2022-11-04T04:49:47;997;;;5.5;100
43181;BME280;28798;54.950;26.362;2022-11-04T04:54:37;997;;;5.5;100
43181;BME280;28798;54.950;26.362;2022-11-04T04:59:19;997;;;5.5;100
43181;BME280;28798;54.950;26.362;2022-11-04T05:04:13;997;;;5.5;100
43181;BME280;28798;54.950;26.362;2022-11-04T05:08:59;997.1;;;5.4;100
43181;BME280;28798;54.950;26.362;2022-11-04T05:14:09;997.1;;;5.4;100
43181;BME280;28798;54.950;26.362;2022-11-04T05:19:35;997.1;;;5.4;100
43181;BME280;28798;54.950;26.362;2022-11-04T05:24:06;997.1;;;5.5;100
43181;BME280;28798;54.950;26.362;2022-11-04T05:29:37;997.1;;;5.5;100
43181;BME280;28798;54.950;26.362;2022-11-04T05:33:49;997.1;;;5.5;100
43181;BME280;28798;54.950;26.362;2022-11-04T05:44:09;997.2;;;5.5;100
43181;BME280;28798;54.950;26.362;2022-11-04T05:49:21;997.1;;;5.6;100
43181;BME280;28798;54.950;26.362;2022-11-04T05:54:15;997.2;;;5.6;100
43181;BME280;28798;54.950;26.362;2022-11-04T05:58:49;997.2;;;5.6;100
43181;BME280;28798;54.950;26.362;2022-11-04T06:04:35;997.2;;;5.6;100
43181;BME280;28798;54.950;26.362;2022-11-04T06:09:37;997.2;;;5.6;100
43181;BME280;28798;54.950;26.362;2022-11-04T06:14:21;997.3;;;5.7;100
43181;BME280;28798;54.950;26.362;2022-11-04T06:18:50;997.3;;;5.7;100
43181;BME280;28798;54.950;26.362;2022-11-04T06:23:50;997.3;;;5.7;100
43181;BME280;28798;54.950;26.362;2022-11-04T06:29:11;997.3;;;5.8;100
43181;BME280;28798;54.950;26.362;2022-11-04T06:34:37;997.3;;;5.8;100
43181;BME280;28798;54.950;26.362;2022-11-04T06:44:13;997.4;;;5.9;100
43181;BME280;28798;54.950;26.362;2022-11-04T06:48:49;997.4;;;5.9;100
43181;BME280;28798;54.950;26.362;2022-11-04T06:54:37;997.4;;;6;100
43181;BME280;28798;54.950;26.362;2022-11-04T06:59:13;997.4;;;6;100
43181;BME280;28798;54.950;26.362;2022-11-04T07:04:21;997.4;;;6.2;100
43181;BME280;28798;54.950;26.362;2022-11-04T07:09:27;997.4;;;6.3;100
43181;BME280;28798;54.950;26.362;2022-11-04T07:14:03;997.4;;;6.3;100
43181;BME280;28798;54.950;26.362;2022-11-04T07:19:37;997.4;;;6.4;100
43181;BME280;28798;54.950;26.362;2022-11-04T07:24:34;997.4;;;6.5;100
43181;BME280;28798;54.950;26.362;2022-11-04T07:29:19;997.4;;;6.5;100
43181;BME280;28798;54.950;26.362;2022-11-04T07:34:03;997.4;;;6.6;100
43181;BME280;28798;54.950;26.362;2022-11-04T07:38:59;997.3;;;6.8;100
43181;BME280;28798;54.950;26.362;2022-11-04T07:43:50;997.4;;;6.9;100
43181;BME280;28798;54.950;26.362;2022-11-04T07:49:35;997.3;;;6.9;100
43181;BME280;28798;54.950;26.362;2022-11-04T07:54:07;997.4;;;6.9;100
43181;BME280;28798;54.950;26.362;2022-11-04T07:59:37;997.4;;;7;100
43181;BME280;28798;54.950;26.362;2022-11-04T08:03:50;997.3;;;7;100
43181;BME280;28798;54.950;26.362;2022-11-04T08:14:11;997.4;;;7;100
43181;BME280;28798;54.950;26.362;2022-11-04T08:19:21;997.3;;;7.1;100
43181;BME280;28798;54.950;26.362;2022-11-04T08:24:23;997.3;;;7.1;100
43181;BME280;28798;54.950;26.362;2022-11-04T08:28:50;997.3;;;7.1;100
43181;BME280;28798;54.950;26.362;2022-11-04T08:34:31;997.2;;;7.2;100
43181;BME280;28798;54.950;26.362;2022-11-04T08:39:35;997.2;;;7.2;100
43181;BME280;28798;54.950;26.362;2022-11-04T08:43:51;997.4;;;7.3;100
43181;BME280;28798;54.950;26.362;2022-11-04T08:49:25;997.3;;;7.3;100
43181;BME280;28798;54.950;26.362;2022-11-04T08:53:50;997.3;;;7.4;100
43181;BME280;28798;54.950;26.362;2022-11-04T08:58:58;997.3;;;7.3;100
43181;BME280;28798;54.950;26.362;2022-11-04T09:04:33;997.3;;;7.3;100
43181;BME280;28798;54.950;26.362;2022-11-04T09:09:08;997.2;;;7.4;100
43181;BME280;28798;54.950;26.362;2022-11-04T09:14:24;997.3;;;7.4;100
43181;BME280;28798;54.950;26.362;2022-11-04T09:18:49;997.3;;;7.5;100
43181;BME280;28798;54.950;26.362;2022-11-04T09:24:35;997.2;;;7.5;100
43181;BME280;28798;54.950;26.362;2022-11-04T09:29:10;997.2;;;7.6;100
43181;BME280;28798;54.950;26.362;2022-11-04T09:34:22;997.1;;;7.5;100
43181;BME280;28798;54.950;26.362;2022-11-04T09:39:26;997.1;;;7.6;100
43181;BME280;28798;54.950;26.362;2022-11-04T09:44:17;997.1;;;7.5;100
43181;BME280;28798;54.950;26.362;2022-11-04T09:49:34;997;;;7.6;100
43181;BME280;28798;54.950;26.362;2022-11-04T09:54:37;997;;;7.6;100
43181;BME280;28798;54.950;26.362;2022-11-04T09:59:19;997;;;7.6;100
43181;BME280;28798;54.950;26.362;2022-11-04T10:04:17;996.9;;;7.6;100
43181;BME280;28798;54.950;26.362;2022-11-04T10:08:52;996.9;;;7.6;100
43181;BME280;28798;54.950;26.362;2022-11-04T10:14:16;996.9;;;7.7;100
43181;BME280;28798;54.950;26.362;2022-11-04T10:19:42;996.9;;;7.7;100
43181;BME280;28798;54.950;26.362;2022-11-04T10:24:11;996.9;;;7.7;100
43181;BME280;28798;54.950;26.362;2022-11-04T10:29:35;996.9;;;7.7;100
43181;BME280;28798;54.950;26.362;2022-11-04T10:34:02;997;;;7.8;100
43181;BME280;28798;54.950;26.362;2022-11-04T10:39:39;997;;;7.7;100
43181;BME280;28798;54.950;26.362;2022-11-04T10:44:13;997;;;7.7;100
43181;BME280;28798;54.950;26.362;2022-11-04T10:49:26;997;;;7.7;100
43181;BME280;28798;54.950;26.362;2022-11-04T10:54:28;997;;;7.7;100
43181;BME280;28798;54.950;26.362;2022-11-04T10:58:50;997;;;7.7;100
43181;BME280;28798;54.950;26.362;2022-11-04T11:04:35;997;;;7.8;100
43181;BME280;28798;54.950;26.362;2022-11-04T11:09:26;997;;;7.8;100
43181;BME280;28798;54.950;26.362;2022-11-04T11:14:38;996.9;;;7.8;100
43181;BME280;28798;54.950;26.362;2022-11-04T11:19:15;997;;;7.9;100
43181;BME280;28798;54.950;26.362;2022-11-04T11:24:00;997;;;7.8;100
43181;BME280;28798;54.950;26.362;2022-11-04T11:29:00;997;;;7.8;100
43181;BME280;28798;54.950;26.362;2022-11-04T11:34:36;997;;;7.6;100
43181;BME280;28798;54.950;26.362;2022-11-04T11:38:58;997;;;7.6;100
43181;BME280;28798;54.950;26.362;2022-11-04T11:44:23;996.9;;;7.6;100
43181;BME280;28798;54.950;26.362;2022-11-04T11:49:00;996.9;;;7.5;100
43181;BME280;28798;54.950;26.362;2022-11-04T11:53:56;996.9;;;7.5;100
43181;BME280;28798;54.950;26.362;2022-11-04T11:59:15;996.9;;;7.4;100
43181;BME280;28798;54.950;26.362;2022-11-04T12:04:24;996.8;;;7.4;100
43181;BME280;28798;54.950;26.362;2022-11-04T12:09:28;996.9;;;7.4;100
43181;BME280;28798;54.950;26.362;2022-11-04T12:14:26;996.9;;;7.4;100
43181;BME280;28798;54.950;26.362;2022-11-04T12:19:16;996.9;;;7.4;100
43181;BME280;28798;54.950;26.362;2022-11-04T12:24:37;996.9;;;7.4;100
43181;BME280;28798;54.950;26.362;2022-11-04T12:29:39;996.9;;;7.3;100
43181;BME280;28798;54.950;26.362;2022-11-04T12:34:41;996.9;;;7.3;100
43181;BME280;28798;54.950;26.362;2022-11-04T12:39:12;996.8;;;7.2;100
43181;BME280;28798;54.950;26.362;2022-11-04T12:44:05;996.8;;;7.1;100
43181;BME280;28798;54.950;26.362;2022-11-04T12:49:38;996.8;;;7.1;100
43181;BME280;28798;54.950;26.362;2022-11-04T12:54:14;996.8;;;7.1;100
43181;BME280;28798;54.950;26.362;2022-11-04T12:59:15;996.8;;;7;100
43181;BME280;28798;54.950;26.362;2022-11-04T13:03:51;996.8;;;7;100
43181;BME280;28798;54.950;26.362;2022-11-04T13:09:01;996.9;;;6.9;100
43181;BME280;28798;54.950;26.362;2022-11-04T13:14:01;996.8;;;7;100
43181;BME280;28798;54.950;26.362;2022-11-04T13:19:23;996.8;;;7;100
43181;BME280;28798;54.950;26.362;2022-11-04T13:24:30;996.8;;;6.9;100
43181;BME280;28798;54.950;26.362;2022-11-04T13:28:53;996.8;;;6.9;100
43181;BME280;28798;54.950;26.362;2022-11-04T13:33:50;996.9;;;6.7;100
43181;BME280;28798;54.950;26.362;2022-11-04T13:39:38;996.9;;;6.6;100
43181;BME280;28798;54.950;26.362;2022-11-04T13:44:38;997;;;6.7;100
43181;BME280;28798;54.950;26.362;2022-11-04T13:48:51;997;;;6.7;100
43181;BME280;28798;54.950;26.362;2022-11-04T13:54:38;997;;;6.7;100
43181;BME280;28798;54.950;26.362;2022-11-04T13:59:05;996.9;;;6.5;100
43181;BME280;28798;54.950;26.362;2022-11-04T14:04:27;996.9;;;6.5;100
43181;BME280;28798;54.950;26.362;2022-11-04T14:09:31;996.9;;;6.4;100
43181;BME280;28798;54.950;26.362;2022-11-04T14:14:24;996.9;;;6.4;100
43181;BME280;28798;54.950;26.362;2022-11-04T14:19:00;996.9;;;6.4;100
43181;BME280;28798;54.950;26.362;2022-11-04T14:23:51;996.9;;;6.3;100
43181;BME280;28798;54.950;26.362;2022-11-04T14:29:00;997;;;6.2;100
43181;BME280;28798;54.950;26.362;2022-11-04T14:34:24;997;;;6.1;100
43181;BME280;28798;54.950;26.362;2022-11-04T14:44:40;997;;;6.1;100
43181;BME280;28798;54.950;26.362;2022-11-04T14:49:17;997;;;6;100
43181;BME280;28798;54.950;26.362;2022-11-04T14:54:36;997.1;;;5.9;100
43181;BME280;28798;54.950;26.362;2022-11-04T14:59:36;997.1;;;5.8;100
43181;BME280;28798;54.950;26.362;2022-11-04T15:04:17;997.1;;;5.8;100
43181;BME280;28798;54.950;26.362;2022-11-04T15:08:50;997;;;5.7;100
43181;BME280;28798;54.950;26.362;2022-11-04T15:14:00;997;;;5.7;100
43181;BME280;28798;54.950;26.362;2022-11-04T15:19:36;997;;;5.7;100
43181;BME280;28798;54.950;26.362;2022-11-04T15:24:10;997.1;;;5.5;100
43181;BME280;28798;54.950;26.362;2022-11-04T15:29:22;997.1;;;5.4;100
43181;BME280;28798;54.950;26.362;2022-11-04T15:33:51;997.1;;;5.4;100
43181;BME280;28798;54.950;26.362;2022-11-04T15:39:22;997.2;;;5.3;100
43181;BME280;28798;54.950;26.362;2022-11-04T15:44:15;997.2;;;5.3;100
43181;BME280;28798;54.950;26.362;2022-11-04T15:49:23;997.2;;;5.3;100
43181;BME280;28798;54.950;26.362;2022-11-04T15:54:17;997.2;;;5.2;100
43181;BME280;28798;54.950;26.362;2022-11-04T15:59:38;997.2;;;5.2;100
43181;BME280;28798;54.950;26.362;2022-11-04T16:03:50;997.3;;;5.1;100
43181;BME280;28798;54.950;26.362;2022-11-04T16:14:31;997.3;;;5;100
43181;BME280;28798;54.950;26.362;2022-11-04T16:19:36;997.3;;;5;100
43181;BME280;28798;54.950;26.362;2022-11-04T16:24:05;997.3;;;5;100
43181;BME280;28798;54.950;26.362;2022-11-04T16:29:00;997.3;;;4.8;100
43181;BME280;28798;54.950;26.362;2022-11-04T16:34:12;997.3;;;4.7;100
43181;BME280;28798;54.950;26.362;2022-11-04T16:39:41;997.3;;;4.7;100
43181;BME280;28798;54.950;26.362;2022-11-04T16:44:43;997.3;;;4.7;100
43181;BME280;28798;54.950;26.362;2022-11-04T16:49:38;997.3;;;4.7;100
43181;BME280;28798;54.950;26.362;2022-11-04T16:54:24;997.4;;;4.5;100
43181;BME280;28798;54.950;26.362;2022-11-04T16:59:28;997.4;;;4.3;100
43181;BME280;28798;54.950;26.362;2022-11-04T17:04:24;997.4;;;4.3;100
43181;BME280;28798;54.950;26.362;2022-11-04T17:14:38;997.4;;;4.1;100
43181;BME280;28798;54.950;26.362;2022-11-04T17:18:50;997.3;;;3.9;100
43181;BME280;28798;54.950;26.362;2022-11-04T17:24:40;997.4;;;3.8;100
43181;BME280;28798;54.950;26.362;2022-11-04T17:28:50;997.4;;;3.8;100
43181;BME280;28798;54.950;26.362;2022-11-04T17:34:36;997.4;;;3.6;100
43181;BME280;28798;54.950;26.362;2022-11-04T17:43:50;997.3;;;3.2;100
43181;BME280;28798;54.950;26.362;2022-11-04T17:48:50;997.3;;;3.2;100
43181;BME280;28798;54.950;26.362;2022-11-04T17:54:26;997.3;;;3.2;100
43181;BME280;28798;54.950;26.362;2022-11-04T17:59:40;997.3;;;3.2;100
43181;BME280;28798;54.950;26.362;2022-11-04T18:04:40;997.4;;;2.7;100
43181;BME280;28798;54.950;26.362;2022-11-04T18:09:00;997.4;;;2.7;100
43181;BME280;28798;54.950;26.362;2022-11-04T18:14:28;997.5;;;2.6;100
43181;BME280;28798;54.950;26.362;2022-11-04T18:19:10;997.5;;;2.6;100
43181;BME280;28798;54.950;26.362;2022-11-04T18:24:00;997.5;;;2.6;100
43181;BME280;28798;54.950;26.362;2022-11-04T18:34:00;997.5;;;2.6;100
43181;BME280;28798;54.950;26.362;2022-11-04T18:39:22;997.4;;;2.4;100
43181;BME280;28798;54.950;26.362;2022-11-04T18:44:12;997.5;;;2.4;100
43181;BME280;28798;54.950;26.362;2022-11-04T18:49:40;997.5;;;2.4;100
43181;BME280;28798;54.950;26.362;2022-11-04T18:54:14;997.5;;;2.4;100
43181;BME280;28798;54.950;26.362;2022-11-04T18:59:00;997.6;;;2.4;100
43181;BME280;28798;54.950;26.362;2022-11-04T19:04:00;997.6;;;2.4;100
43181;BME280;28798;54.950;26.362;2022-11-04T19:14:40;997.6;;;2.5;100
43181;BME280;28798;54.950;26.362;2022-11-04T19:19:34;997.6;;;2.5;100
43181;BME280;28798;54.950;26.362;2022-11-04T19:24:04;997.7;;;2.5;100
43181;BME280;28798;54.950;26.362;2022-11-04T19:29:28;997.7;;;2.5;100
43181;BME280;28798;54.950;26.362;2022-11-04T19:34:24;997.9;;;2.6;100
43181;BME280;28798;54.950;26.362;2022-11-04T19:44:40;998;;;2.6;100
43181;BME280;28798;54.950;26.362;2022-11-04T19:49:00;998;;;2.7;100
43181;BME280;28798;54.950;26.362;2022-11-04T19:54:14;998;;;2.7;100
43181;BME280;28798;54.950;26.362;2022-11-04T19:58:50;998;;;2.7;100
43181;BME280;28798;54.950;26.362;2022-11-04T20:09:14;998;;;2.7;100
43181;BME280;28798;54.950;26.362;2022-11-04T20:13:50;998;;;2.9;100
43181;BME280;28798;54.950;26.362;2022-11-04T20:19:02;998;;;3;100
43181;BME280;28798;54.950;26.362;2022-11-04T20:24:26;998.1;;;3;100
43181;BME280;28798;54.950;26.362;2022-11-04T20:29:10;998.1;;;3;100
43181;BME280;28798;54.950;26.362;2022-11-04T20:34:40;998.2;;;3.1;100
43181;BME280;28798;54.950;26.362;2022-11-04T20:39:11;998.2;;;3.2;100
43181;BME280;28798;54.950;26.362;2022-11-04T20:44:28;998.2;;;3.2;100
43181;BME280;28798;54.950;26.362;2022-11-04T20:48:52;998.3;;;3.1;100
43181;BME280;28798;54.950;26.362;2022-11-04T20:54:26;998.3;;;3.1;100
43181;BME280;28798;54.950;26.362;2022-11-04T20:59:40;998.3;;;3.2;100
43181;BME280;28798;54.950;26.362;2022-11-04T21:03:50;998.2;;;3.2;100
43181;BME280;28798;54.950;26.362;2022-11-04T21:09:40;998.2;;;3.2;100
43181;BME280;28798;54.950;26.362;2022-11-04T21:14:10;998.2;;;3.3;100
43181;BME280;28798;54.950;26.362;2022-11-04T21:19:24;998.2;;;3.3;100
43181;BME280;28798;54.950;26.362;2022-11-04T21:24:12;998.2;;;3.3;100
43181;BME280;28798;54.950;26.362;2022-11-04T21:28:51;998.2;;;3.3;100
43181;BME280;28798;54.950;26.362;2022-11-04T21:34:12;998.2;;;3.3;100
43181;BME280;28798;54.950;26.362;2022-11-04T21:44:09;998.1;;;3.3;100
43181;BME280;28798;54.950;26.362;2022-11-04T21:49:36;998.1;;;3.3;100
43181;BME280;28798;54.950;26.362;2022-11-04T21:53:50;998.2;;;3.4;100
43181;BME280;28798;54.950;26.362;2022-11-04T21:59:22;998.2;;;3.4;100
43181;BME280;28798;54.950;26.362;2022-11-04T22:04:20;998.1;;;3.3;100
43181;BME280;28798;54.950;26.362;2022-11-04T22:09:22;998.1;;;3.2;100
43181;BME280;28798;54.950;26.362;2022-11-04T22:14:36;998.1;;;3.2;100
43181;BME280;28798;54.950;26.362;2022-11-04T22:18:50;998.2;;;3.2;100
43181;BME280;28798;54.950;26.362;2022-11-04T22:24:24;998.2;;;3.2;100
43181;BME280;28798;54.950;26.362;2022-11-04T22:29:04;998.2;;;3.1;100
43181;BME280;28798;54.950;26.362;2022-11-04T22:34:24;998.1;;;3.1;100
43181;BME280;28798;54.950;26.362;2022-11-04T22:39:24;998.1;;;3.1;100
43181;BME280;28798;54.950;26.362;2022-11-04T22:43:58;998.2;;;3.1;100
43181;BME280;28798;54.950;26.362;2022-11-04T22:49:12;998.2;;;3.1;100
43181;BME280;28798;54.950;26.362;2022-11-04T22:54:22;998.2;;;3;100
43181;BME280;28798;54.950;26.362;2022-11-04T22:59:06;998.2;;;2.9;100
43181;BME280;28798;54.950;26.362;2022-11-04T23:04:36;998.2;;;2.9;100
43181;BME280;28798;54.950;26.362;2022-11-04T23:14:24;998.3;;;2.9;100
43181;BME280;28798;54.950;26.362;2022-11-04T23:19:18;998.2;;;2.8;100
43181;BME280;28798;54.950;26.362;2022-11-04T23:24:20;998.2;;;2.9;100
43181;BME280;28798;54.950;26.362;2022-11-04T23:29:36;998.2;;;2.9;100
43181;BME280;28798;54.950;26.362;2022-11-04T23:33:56;998.4;;;2.8;100
43181;BME280;28798;54.950;26.362;2022-11-04T23:39:32;998.3;;;2.8;100
43181;BME280;28798;54.950;26.362;2022-11-04T23:44:04;998.3;;;2.8;100
43181;BME280;28798;54.950;26.362;2022-11-04T23:49:20;998.2;;;2.7;100
43181;BME280;28798;54.950;26.362;2022-11-04T23:54:22;998.2;;;2.7;100
43181;BME280;28798;54.950;26.362;2022-11-04T23:58:50;998.1;;;2.7;100
